createdAt,value
2022-07-31T00:01:26.469Z,5.10
2022-07-31T00:03:58.171Z,5.63
2022-07-31T00:06:26.458Z,5.17
2022-07-31T00:08:57.212Z,5.40
2022-07-31T00:11:25.315Z,5.37
2022-07-31T00:13:57.272Z,5.43
2022-07-31T00:16:26.846Z,5.90
2022-07-31T00:18:56.422Z,5.50
2022-07-31T00:21:24.912Z,4.80
2022-07-31T00:23:53.350Z,4.63
2022-07-31T00:26:21.588Z,4.90
2022-07-31T00:28:49.733Z,5.10
2022-07-31T00:31:18.429Z,5.40
2022-07-31T00:33:46.818Z,5.43
2022-07-31T00:36:18.870Z,4.83
2022-07-31T00:38:48.212Z,4.70
2022-07-31T00:41:16.525Z,5.20
2022-07-31T00:43:44.667Z,5.07
2022-07-31T00:46:14.270Z,5.30
2022-07-31T00:48:42.967Z,5.20
2022-07-31T00:51:12.289Z,5.43
2022-07-31T00:53:41.772Z,5.80
2022-07-31T00:56:09.944Z,5.60
2022-07-31T00:58:38.058Z,5.73
2022-07-31T01:01:06.387Z,5.60
2022-07-31T01:03:35.342Z,6.00
2022-07-31T01:06:03.503Z,5.80
2022-07-31T01:08:32.787Z,6.17
2022-07-31T01:11:09.875Z,6.27
2022-07-31T01:13:46.502Z,6.27
2022-07-31T01:16:15.729Z,6.50
2022-07-31T01:18:45.179Z,6.27
2022-07-31T01:21:21.191Z,5.63
2022-07-31T01:24:20.142Z,5.90
2022-07-31T01:27:00.925Z,5.60
2022-07-31T01:29:35.483Z,5.57
2022-07-31T01:32:09.684Z,5.83
2022-07-31T01:34:43.788Z,6.00
2022-07-31T01:37:17.239Z,6.20
2022-07-31T01:39:55.976Z,6.20
2022-07-31T01:42:27.010Z,6.10
2022-07-31T01:45:01.611Z,6.33
2022-07-31T01:47:31.982Z,6.13
2022-07-31T01:50:04.693Z,6.70
2022-07-31T01:52:33.906Z,6.40
2022-07-31T01:55:04.097Z,5.90
2022-07-31T01:57:33.561Z,6.60
2022-07-31T02:00:23.491Z,6.47
2022-07-31T02:02:58.735Z,6.10
2022-07-31T02:05:39.450Z,5.77
2022-07-31T02:08:09.768Z,5.67
2022-07-31T02:10:39.551Z,5.43
2022-07-31T02:13:08.715Z,5.80
2022-07-31T02:15:38.970Z,5.23
2022-07-31T02:18:09.826Z,4.80
2022-07-31T02:20:39.851Z,5.27
2022-07-31T02:23:08.492Z,4.80
2022-07-31T02:25:38.173Z,4.97
2022-07-31T02:28:10.378Z,4.87
2022-07-31T02:30:43.359Z,5.27
2022-07-31T02:33:17.910Z,5.53
2022-07-31T02:35:52.515Z,5.37
2022-07-31T02:38:24.065Z,5.40
2022-07-31T02:40:55.136Z,5.27
2022-07-31T02:43:26.932Z,5.23
2022-07-31T02:45:58.590Z,5.73
2022-07-31T02:48:30.243Z,5.30
2022-07-31T02:50:59.344Z,5.63
2022-07-31T02:53:28.154Z,5.53
2022-07-31T02:55:56.889Z,5.97
2022-07-31T02:58:25.108Z,6.00
2022-07-31T03:01:02.220Z,5.70
2022-07-31T03:03:30.454Z,5.70
2022-07-31T03:06:01.500Z,5.67
2022-07-31T03:08:29.809Z,5.03
2022-07-31T03:10:59.327Z,5.97
2022-07-31T03:13:32.402Z,5.90
2022-07-31T03:16:02.763Z,5.40
2022-07-31T03:18:32.595Z,5.00
2022-07-31T03:21:00.794Z,5.40
2022-07-31T03:23:36.054Z,5.70
2022-07-31T03:26:05.338Z,5.57
2022-07-31T03:28:37.159Z,5.27
2022-07-31T03:31:07.922Z,5.33
2022-07-31T03:33:36.145Z,5.70
2022-07-31T03:36:05.620Z,5.20
2022-07-31T03:38:41.374Z,5.00
2022-07-31T03:41:11.834Z,5.20
2022-07-31T03:43:47.816Z,6.07
2022-07-31T03:46:21.387Z,5.33
2022-07-31T03:48:53.295Z,5.23
2022-07-31T03:51:22.282Z,6.10
2022-07-31T03:53:51.574Z,5.43
2022-07-31T03:56:21.007Z,5.33
2022-07-31T03:58:52.570Z,5.70
2022-07-31T04:01:23.758Z,5.40
2022-07-31T04:03:59.588Z,6.20
2022-07-31T04:06:28.027Z,5.53
2022-07-31T04:09:01.479Z,5.93
2022-07-31T04:11:48.705Z,6.00
2022-07-31T04:14:16.892Z,6.37
2022-07-31T04:16:46.344Z,5.73
2022-07-31T04:19:14.495Z,5.90
2022-07-31T04:21:42.734Z,5.80
2022-07-31T04:24:11.583Z,5.90
2022-07-31T04:26:39.778Z,5.70
2022-07-31T04:29:07.915Z,6.30
2022-07-31T04:31:36.095Z,6.07
2022-07-31T04:34:05.604Z,6.30
2022-07-31T04:36:33.781Z,6.07
2022-07-31T04:39:02.659Z,6.10
2022-07-31T04:41:31.210Z,6.47
2022-07-31T04:44:02.950Z,6.40
2022-07-31T04:46:31.088Z,6.23
2022-07-31T04:48:59.302Z,6.50
2022-07-31T04:51:28.828Z,6.53
2022-07-31T04:53:57.002Z,6.63
2022-07-31T04:56:41.803Z,6.07
2022-07-31T04:59:12.136Z,6.30
2022-07-31T05:01:41.967Z,6.37
2022-07-31T05:04:11.929Z,6.27
2022-07-31T05:06:43.924Z,6.80
2022-07-31T05:09:18.709Z,6.57
2022-07-31T05:11:48.397Z,6.53
2022-07-31T05:14:18.688Z,6.27
2022-07-31T05:16:47.325Z,6.43
2022-07-31T05:19:15.465Z,5.97
2022-07-31T05:21:46.997Z,6.30
2022-07-31T05:24:33.521Z,6.03
2022-07-31T05:27:05.400Z,6.67
2022-07-31T05:29:34.581Z,6.00
2022-07-31T05:32:02.821Z,6.37
2022-07-31T05:34:31.488Z,6.30
2022-07-31T05:37:02.168Z,5.77
2022-07-31T05:39:31.039Z,6.10
2022-07-31T05:41:59.198Z,5.37
2022-07-31T05:44:30.020Z,5.80
2022-07-31T05:49:28.951Z,5.53
2022-07-31T05:51:58.965Z,5.50
2022-07-31T05:54:29.043Z,6.13
2022-07-31T05:56:57.163Z,5.33
2022-07-31T05:59:25.430Z,5.60
2022-07-31T06:01:54.071Z,5.57
2022-07-31T06:04:22.333Z,5.60
2022-07-31T06:06:51.133Z,5.80
2022-07-31T06:09:19.323Z,5.87
2022-07-31T06:11:48.807Z,6.10
2022-07-31T06:14:16.895Z,5.80
2022-07-31T06:16:45.606Z,5.73
2022-07-31T06:19:13.743Z,6.00
2022-07-31T06:21:41.966Z,5.37
2022-07-31T06:24:13.521Z,5.10
2022-07-31T06:26:41.689Z,5.87
2022-07-31T06:29:12.990Z,5.30
2022-07-31T06:31:41.549Z,5.40
2022-07-31T06:34:09.726Z,5.23
2022-07-31T06:36:37.866Z,5.10
2022-07-31T06:39:07.347Z,5.50
2022-07-31T06:41:50.490Z,5.37
2022-07-31T06:44:21.275Z,5.40
2022-07-31T06:46:51.963Z,6.47
2022-07-31T06:49:20.139Z,5.50
2022-07-31T06:51:48.330Z,6.37
2022-07-31T06:54:16.891Z,5.47
2022-07-31T06:56:45.416Z,5.13
2022-07-31T06:59:13.636Z,5.13
2022-07-31T07:02:03.838Z,5.20
2022-07-31T07:05:00.775Z,5.00
2022-07-31T07:07:24.188Z,5.30
2022-07-31T07:09:59.989Z,4.97
2022-07-31T07:12:28.454Z,5.03
2022-07-31T07:14:56.762Z,4.83
2022-07-31T07:17:29.142Z,5.07
2022-07-31T07:19:57.880Z,5.00
2022-07-31T07:22:31.671Z,4.40
2022-07-31T07:25:02.894Z,4.40
2022-07-31T07:27:31.098Z,4.30
2022-07-31T07:30:00.540Z,4.37
2022-07-31T07:32:30.411Z,4.63
2022-07-31T07:34:59.649Z,4.43
2022-07-31T07:37:31.005Z,4.60
2022-07-31T07:40:09.751Z,4.45
2022-07-31T07:42:38.023Z,4.07
2022-07-31T07:45:08.545Z,5.03
2022-07-31T07:47:53.610Z,4.22
2022-07-31T07:50:29.177Z,4.22
2022-07-31T07:52:58.232Z,4.32
2022-07-31T07:55:27.016Z,4.50
2022-07-31T07:57:57.331Z,4.80
2022-07-31T08:00:25.934Z,4.90
2022-07-31T08:03:47.054Z,4.50
2022-07-31T08:05:46.323Z,5.28
2022-07-31T08:08:17.798Z,4.50
2022-07-31T08:10:45.947Z,5.10
2022-07-31T08:13:14.627Z,4.93
2022-07-31T08:15:42.819Z,5.13
2022-07-31T08:18:12.534Z,5.10
2022-07-31T08:20:41.086Z,5.15
2022-07-31T08:23:09.210Z,5.93
2022-07-31T08:25:39.510Z,5.60
2022-07-31T08:28:12.421Z,5.70
2022-07-31T08:30:47.589Z,5.60
2022-07-31T08:33:17.121Z,5.35
2022-07-31T08:35:50.571Z,5.25
2022-07-31T08:38:19.736Z,5.57
2022-07-31T08:40:48.225Z,6.00
2022-07-31T08:44:02.700Z,5.43
2022-07-31T08:46:08.825Z,5.97
2022-07-31T08:48:42.796Z,6.25
2022-07-31T08:51:13.830Z,5.97
2022-07-31T08:53:45.126Z,5.93
2022-07-31T08:56:14.098Z,5.53
2022-07-31T08:58:42.535Z,5.80
2022-07-31T09:01:13.120Z,6.60
2022-07-31T09:03:43.092Z,6.28
2022-07-31T09:06:14.389Z,5.90
2022-07-31T09:08:42.825Z,6.10
2022-07-31T09:11:13.549Z,5.38
2022-07-31T09:14:02.478Z,5.80
2022-07-31T09:16:32.184Z,6.40
2022-07-31T09:19:51.824Z,6.80
2022-07-31T09:21:53.517Z,5.93
2022-07-31T09:24:30.792Z,6.45
2022-07-31T09:27:08.866Z,7.45
2022-07-31T09:29:39.555Z,7.78
2022-07-31T09:32:14.012Z,7.38
2022-07-31T09:34:44.769Z,7.97
2022-07-31T09:37:15.157Z,8.43
2022-07-31T09:39:51.909Z,8.60
2022-07-31T09:42:24.494Z,8.60
2022-07-31T09:44:53.226Z,8.40
2022-07-31T09:47:23.008Z,9.35
2022-07-31T09:49:58.296Z,9.65
2022-07-31T09:52:28.174Z,10.02
2022-07-31T09:55:15.763Z,9.90
2022-07-31T09:57:54.437Z,10.20
2022-07-31T10:00:24.480Z,10.75
2022-07-31T10:02:56.340Z,10.90
2022-07-31T10:05:28.394Z,11.27
2022-07-31T10:08:00.110Z,11.63
2022-07-31T10:10:32.983Z,11.65
2022-07-31T10:13:07.945Z,12.07
2022-07-31T10:15:43.248Z,13.27
2022-07-31T10:18:16.964Z,12.67
2022-07-31T10:20:56.637Z,12.38
2022-07-31T10:23:30.384Z,11.95
2022-07-31T10:26:00.737Z,13.20
2022-07-31T10:28:29.915Z,14.40
2022-07-31T10:30:58.950Z,14.10
2022-07-31T10:33:43.546Z,16.03
2022-07-31T10:36:20.296Z,15.27
2022-07-31T10:38:57.757Z,15.63
2022-07-31T10:41:42.566Z,14.93
2022-07-31T10:44:22.280Z,13.87
2022-07-31T10:46:50.591Z,14.80
2022-07-31T10:49:18.822Z,13.98
2022-07-31T10:51:54.699Z,13.63
2022-07-31T10:54:22.901Z,14.02
2022-07-31T10:56:51.142Z,13.40
2022-07-31T10:59:30.057Z,13.70
2022-07-31T11:01:58.493Z,12.97
2022-07-31T11:04:28.806Z,13.83
2022-07-31T11:06:59.364Z,13.15
2022-07-31T11:09:30.231Z,13.20
2022-07-31T11:12:00.043Z,12.57
2022-07-31T11:14:36.181Z,13.30
2022-07-31T11:17:05.141Z,13.27
2022-07-31T11:19:46.244Z,13.23
2022-07-31T11:22:31.208Z,12.25
2022-07-31T11:25:01.187Z,13.10
2022-07-31T11:27:34.967Z,12.57
2022-07-31T11:30:12.971Z,13.63
2022-07-31T11:32:42.072Z,13.90
2022-07-31T11:35:10.268Z,14.07
2022-07-31T11:37:56.626Z,13.23
2022-07-31T11:40:27.656Z,13.07
2022-07-31T11:43:24.788Z,12.93
2022-07-31T11:45:49.745Z,13.10
2022-07-31T11:48:19.682Z,13.50
2022-07-31T11:50:49.650Z,14.90
2022-07-31T11:53:21.185Z,14.67
2022-07-31T11:55:54.491Z,14.90
2022-07-31T11:58:25.800Z,14.90
2022-07-31T12:00:57.218Z,15.07
2022-07-31T12:03:34.186Z,15.00
2022-07-31T12:06:02.575Z,15.10
2022-07-31T12:08:32.381Z,16.17
2022-07-31T12:11:03.174Z,16.03
2022-07-31T12:13:32.265Z,15.17
2022-07-31T12:16:04.061Z,16.20
2022-07-31T12:18:34.830Z,17.20
2022-07-31T12:21:08.356Z,18.17
2022-07-31T12:23:46.375Z,19.37
2022-07-31T12:26:24.411Z,20.77
2022-07-31T12:29:02.950Z,19.40
2022-07-31T12:31:45.150Z,19.00
2022-07-31T12:34:28.562Z,19.73
2022-07-31T12:37:05.469Z,20.87
2022-07-31T12:39:54.775Z,22.03
2022-07-31T12:42:30.594Z,22.43
2022-07-31T12:45:18.380Z,22.33
2022-07-31T12:47:51.265Z,23.40
2022-07-31T12:50:20.852Z,24.50
2022-07-31T12:52:49.147Z,24.10
2022-07-31T12:55:19.513Z,24.83
2022-07-31T12:57:51.290Z,23.67
2022-07-31T13:00:22.707Z,22.07
2022-07-31T13:02:51.809Z,23.03
2022-07-31T13:05:29.480Z,22.53
2022-07-31T13:07:57.710Z,24.93
2022-07-31T13:10:32.351Z,23.40
2022-07-31T13:13:03.261Z,24.40
2022-07-31T13:15:31.567Z,25.77
2022-07-31T13:18:05.066Z,26.40
2022-07-31T13:20:33.704Z,25.57
2022-07-31T13:23:04.123Z,26.70
2022-07-31T13:25:33.670Z,27.20
2022-07-31T13:28:10.043Z,30.23
2022-07-31T13:30:45.150Z,30.83
2022-07-31T13:33:13.360Z,29.43
2022-07-31T13:35:44.560Z,29.43
2022-07-31T13:38:14.993Z,29.90
2022-07-31T13:41:01.817Z,30.80
2022-07-31T13:43:29.949Z,31.30
2022-07-31T13:45:58.099Z,29.40
2022-07-31T13:48:27.866Z,30.60
2022-07-31T13:50:56.251Z,31.93
2022-07-31T13:53:24.410Z,29.83
2022-07-31T13:55:54.945Z,29.67
2022-07-31T13:58:23.139Z,31.13
2022-07-31T14:00:51.408Z,31.03
2022-07-31T14:03:21.318Z,31.03
2022-07-31T14:05:50.336Z,31.13
2022-07-31T14:08:33.495Z,27.93
2022-07-31T14:11:13.771Z,27.87
2022-07-31T14:13:45.170Z,26.97
2022-07-31T14:16:13.339Z,27.23
2022-07-31T14:18:41.584Z,26.27
2022-07-31T14:21:09.990Z,24.37
2022-07-31T14:23:40.777Z,24.83
2022-07-31T14:26:10.728Z,23.07
2022-07-31T14:28:41.347Z,21.50
2022-07-31T14:31:11.295Z,20.30
2022-07-31T14:33:41.029Z,17.87
2022-07-31T14:36:12.305Z,16.83
2022-07-31T14:38:44.279Z,15.77
2022-07-31T14:41:16.557Z,14.83
2022-07-31T14:43:46.775Z,12.80
2022-07-31T14:46:16.545Z,11.83
2022-07-31T14:48:52.317Z,10.03
2022-07-31T14:51:20.962Z,10.77
2022-07-31T14:53:49.973Z,11.37
2022-07-31T14:56:39.688Z,11.23
2022-07-31T14:59:09.678Z,11.23
2022-07-31T15:01:37.977Z,10.73
2022-07-31T15:04:06.579Z,9.10
2022-07-31T15:06:37.549Z,9.70
2022-07-31T15:09:23.383Z,7.30
2022-07-31T15:12:00.121Z,6.23
2022-07-31T15:14:29.738Z,7.07
2022-07-31T15:16:59.091Z,7.00
2022-07-31T15:19:29.985Z,7.10
2022-07-31T15:22:10.057Z,7.07
2022-07-31T15:24:49.066Z,7.10
2022-07-31T15:27:22.480Z,7.50
2022-07-31T15:30:04.983Z,7.30
2022-07-31T15:32:39.727Z,6.70
2022-07-31T15:35:12.267Z,6.43
2022-07-31T15:37:44.021Z,6.10
2022-07-31T15:40:18.034Z,5.43
2022-07-31T15:42:50.389Z,5.50
2022-07-31T15:45:21.562Z,5.10
2022-07-31T15:47:49.900Z,5.30
2022-07-31T15:50:20.214Z,5.00
2022-07-31T15:52:48.661Z,5.00
2022-07-31T15:55:18.846Z,5.40
2022-07-31T15:57:47.140Z,5.17
2022-07-31T16:00:17.741Z,5.53
2022-07-31T16:02:47.964Z,5.22
2022-07-31T16:05:35.874Z,5.77
2022-07-31T16:08:34.088Z,5.40
2022-07-31T16:11:02.264Z,5.30
2022-07-31T16:13:31.407Z,5.68
2022-07-31T16:16:00.929Z,5.20
2022-07-31T16:18:29.193Z,5.88
2022-07-31T16:20:58.282Z,5.45
2022-07-31T16:23:27.917Z,5.10
2022-07-31T16:25:59.471Z,5.03
2022-07-31T16:28:27.660Z,5.07
2022-07-31T16:30:55.834Z,5.20
2022-07-31T16:33:25.355Z,5.60
2022-07-31T16:35:57.155Z,4.50
2022-07-31T16:38:28.123Z,5.25
2022-07-31T16:40:56.230Z,5.88
2022-07-31T16:43:48.399Z,5.88
2022-07-31T16:46:12.861Z,5.82
2022-07-31T16:48:49.179Z,4.82
2022-07-31T16:51:20.281Z,4.47
2022-07-31T16:54:13.940Z,4.03
2022-07-31T16:56:37.500Z,3.10
2022-07-31T16:59:08.815Z,3.22
2022-07-31T17:02:00.073Z,3.28
2022-07-31T17:04:27.011Z,3.20
2022-07-31T17:06:55.446Z,3.08
2022-07-31T17:09:23.866Z,3.78
2022-07-31T17:11:56.894Z,3.65
2022-07-31T17:14:28.533Z,3.83
2022-07-31T17:16:59.042Z,3.30
2022-07-31T17:19:42.102Z,3.60
2022-07-31T17:22:18.595Z,3.40
2022-07-31T17:24:52.741Z,3.50
2022-07-31T17:27:21.865Z,3.20
2022-07-31T17:29:50.691Z,3.17
2022-07-31T17:32:18.885Z,3.20
2022-07-31T17:34:49.589Z,1.90
2022-07-31T17:37:18.161Z,1.55
2022-07-31T17:39:47.165Z,1.80
2022-07-31T17:42:15.594Z,1.60
2022-07-31T17:44:48.246Z,1.73
2022-07-31T17:47:20.758Z,1.70
2022-07-31T17:49:50.288Z,1.52
2022-07-31T17:52:21.495Z,1.90
2022-07-31T17:54:53.050Z,1.90
2022-07-31T17:57:22.824Z,2.00
2022-07-31T17:59:51.953Z,1.80
2022-07-31T18:02:20.218Z,1.77
2022-07-31T18:04:49.856Z,2.03
2022-07-31T18:07:20.421Z,2.20
2022-07-31T18:09:48.561Z,2.23
2022-07-31T18:12:18.450Z,2.20
2022-07-31T18:14:47.337Z,2.60
2022-07-31T18:17:15.551Z,2.47
2022-07-31T18:19:43.742Z,2.53
2022-07-31T18:22:18.511Z,2.70
2022-07-31T18:24:49.547Z,3.33
2022-07-31T18:27:20.639Z,3.57
2022-07-31T18:29:53.542Z,2.70
2022-07-31T18:32:24.840Z,3.37
2022-07-31T18:34:53.457Z,3.30
2022-07-31T18:37:24.728Z,3.40
2022-07-31T18:39:52.917Z,3.33
2022-07-31T18:42:24.065Z,3.30
2022-07-31T18:44:52.627Z,3.00
2022-07-31T18:47:20.886Z,3.30
2022-07-31T18:50:59.640Z,3.30
2022-07-31T18:52:40.387Z,3.60
2022-07-31T18:55:09.748Z,3.60
2022-07-31T18:57:38.186Z,3.50
2022-07-31T19:00:10.744Z,3.30
2022-07-31T19:02:39.744Z,3.90
2022-07-31T19:05:08.987Z,3.10
2022-07-31T19:07:50.966Z,3.13
2022-07-31T19:10:29.745Z,3.43
2022-07-31T19:12:59.587Z,3.33
2022-07-31T19:15:27.831Z,3.43
2022-07-31T19:17:58.780Z,3.43
2022-07-31T19:20:57.488Z,3.40
2022-07-31T19:23:24.014Z,3.73
2022-07-31T19:25:59.467Z,3.43
2022-07-31T19:28:32.819Z,3.57
2022-07-31T19:31:01.659Z,3.57
2022-07-31T19:33:31.156Z,3.47
2022-07-31T19:36:02.247Z,3.30
2022-07-31T19:38:35.745Z,3.27
2022-07-31T19:41:04.841Z,2.80
2022-07-31T19:43:33.616Z,3.40
2022-07-31T19:46:11.156Z,3.20
2022-07-31T19:48:41.862Z,3.50
2022-07-31T19:51:10.405Z,3.67
2022-07-31T19:53:40.194Z,3.23
2022-07-31T19:56:08.816Z,3.77
2022-07-31T19:58:38.322Z,4.00
2022-07-31T20:01:09.999Z,3.83
2022-07-31T20:03:38.569Z,3.60
2022-07-31T20:06:07.600Z,3.47
2022-07-31T20:08:35.860Z,3.40
2022-07-31T20:11:05.908Z,4.10
2022-07-31T20:13:43.862Z,4.17
2022-07-31T20:16:11.988Z,4.23
2022-07-31T20:18:40.140Z,4.30
2022-07-31T20:21:11.532Z,4.70
2022-07-31T20:23:41.520Z,4.67
2022-07-31T20:26:17.123Z,4.70
2022-07-31T20:28:45.869Z,5.23
2022-07-31T20:31:15.751Z,5.47
2022-07-31T20:33:49.117Z,4.87
2022-07-31T20:36:26.837Z,5.67
2022-07-31T20:38:56.678Z,5.87
2022-07-31T20:41:30.099Z,6.07
2022-07-31T20:43:58.375Z,6.10
2022-07-31T20:46:27.681Z,5.20
2022-07-31T20:48:57.255Z,4.43
2022-07-31T20:51:25.690Z,3.03
2022-07-31T20:53:54.918Z,2.60
2022-07-31T20:56:27.008Z,2.17
2022-07-31T20:58:55.939Z,1.70
2022-07-31T21:01:26.045Z,1.83
2022-07-31T21:03:55.951Z,1.70
2022-07-31T21:06:24.203Z,2.80
2022-07-31T21:08:52.380Z,1.73
2022-07-31T21:11:20.702Z,1.63
2022-07-31T21:13:50.533Z,1.80
2022-07-31T21:16:25.802Z,1.50
2022-07-31T21:18:54.707Z,1.40
2022-07-31T21:21:22.957Z,1.40
2022-07-31T21:23:51.591Z,1.17
2022-07-31T21:26:20.406Z,1.63
2022-07-31T21:28:51.322Z,1.30
2022-07-31T21:31:20.084Z,1.30
2022-07-31T21:33:48.983Z,1.10
2022-07-31T21:36:18.691Z,1.20
2022-07-31T21:38:47.455Z,1.20
2022-07-31T21:41:20.624Z,1.20
2022-07-31T21:43:59.446Z,1.47
2022-07-31T21:46:30.253Z,1.37
2022-07-31T21:48:59.774Z,1.27
2022-07-31T21:51:31.637Z,1.27
2022-07-31T21:53:59.824Z,1.60
2022-07-31T21:56:29.812Z,1.87
2022-07-31T21:59:02.239Z,2.07
2022-07-31T22:01:30.830Z,2.20
2022-07-31T22:03:59.510Z,1.87
2022-07-31T22:06:45.123Z,2.50
2022-07-31T22:09:13.388Z,2.20
2022-07-31T22:11:54.939Z,2.33
2022-07-31T22:14:31.344Z,2.10
2022-07-31T22:17:00.463Z,2.73
2022-07-31T22:19:29.486Z,3.23
2022-07-31T22:21:58.279Z,3.40
2022-07-31T22:24:27.307Z,4.13
2022-07-31T22:27:16.805Z,4.83
2022-07-31T22:29:47.201Z,4.33
2022-07-31T22:32:15.786Z,4.60
2022-07-31T22:34:44.233Z,4.77
2022-07-31T22:37:14.200Z,4.93
2022-07-31T22:39:42.776Z,5.07
2022-07-31T22:42:11.469Z,5.10
2022-07-31T22:44:39.823Z,5.77
2022-07-31T22:47:10.945Z,6.30
2022-07-31T22:49:40.031Z,6.07
2022-07-31T22:52:08.310Z,6.03
2022-07-31T22:54:36.443Z,7.33
2022-07-31T22:57:05.100Z,7.50
2022-07-31T22:59:35.085Z,8.83
2022-07-31T23:02:04.650Z,8.73
2022-07-31T23:04:34.632Z,9.90
2022-07-31T23:07:03.111Z,9.90
2022-07-31T23:09:31.625Z,10.63
2022-07-31T23:12:00.692Z,11.60
2022-07-31T23:14:31.800Z,12.00
2022-07-31T23:17:00.393Z,11.30
2022-07-31T23:19:31.346Z,11.43
2022-07-31T23:22:00.951Z,11.13
2022-07-31T23:24:29.134Z,10.77
2022-07-31T23:26:57.479Z,10.70
2022-07-31T23:29:25.715Z,10.97
2022-07-31T23:31:53.818Z,11.13
2022-07-31T23:34:21.959Z,11.17
2022-07-31T23:36:50.354Z,11.13
2022-07-31T23:39:22.920Z,11.23
2022-07-31T23:42:08.898Z,10.63
2022-07-31T23:44:37.905Z,10.10
2022-07-31T23:47:08.796Z,9.90
2022-07-31T23:49:37.015Z,9.00
2022-07-31T23:52:06.014Z,9.80
2022-07-31T23:54:35.840Z,8.70
2022-07-31T23:57:03.968Z,8.50
2022-07-31T23:59:32.164Z,8.73
